Time;durP1;ratioP1;P1;durP2;ratioP2;P2;SDS_P1;SDS_P2;PMS_P1;PMS_P2;Temp;Humidity;BMP_temperature;BMP_pressure;BME280_temperature;BME280_humidity;BME280_pressure;Samples;Min_cycle;Max_cycle;Signal;HPM_P1;HPM_P2
2023/02/27 00:00:52;;;;;;;2.40;2.20;;;-1.50;99.90;;;;;;5013200;28;20453;-77
2023/02/27 00:03:19;;;;;;;5.87;3.60;;;-1.50;99.90;;;;;;5013468;28;20459;-77
2023/02/27 00:05:47;;;;;;;3.33;3.03;;;-1.50;99.90;;;;;;5013457;28;20457;-77
2023/02/27 00:08:14;;;;;;;3.20;2.87;;;-1.50;99.90;;;;;;5014638;28;20527;-81
2023/02/27 00:10:41;;;;;;;4.40;2.57;;;-1.40;99.90;;;;;;5017355;28;20540;-79
2023/02/27 00:13:08;;;;;;;3.63;3.33;;;-1.50;99.90;;;;;;5014683;28;20471;-77
2023/02/27 00:15:37;;;;;;;4.70;3.23;;;-1.50;99.90;;;;;;5012867;28;20460;-77
2023/02/27 00:18:04;;;;;;;4.30;3.10;;;-1.40;99.90;;;;;;5012666;28;20461;-78
2023/02/27 00:20:36;;;;;;;4.10;2.93;;;-1.50;99.90;;;;;;5011364;28;20471;-77
2023/02/27 00:23:05;;;;;;;2.93;2.30;;;-1.60;99.90;;;;;;5010115;28;20502;-77
2023/02/27 00:25:33;;;;;;;7.83;3.47;;;-1.70;99.90;;;;;;5010266;28;21059;-77
2023/02/27 00:28:00;;;;;;;4.63;3.37;;;-1.70;99.90;;;;;;5009634;28;20450;-77
2023/02/27 00:30:28;;;;;;;4.97;2.90;;;-1.70;99.90;;;;;;5005968;28;20461;-77
2023/02/27 00:32:55;;;;;;;5.03;3.57;;;-1.70;99.90;;;;;;5010031;28;20467;-77
2023/02/27 00:35:22;;;;;;;5.37;3.13;;;-1.70;99.90;;;;;;5009795;28;20483;-77
2023/02/27 00:37:48;;;;;;;4.20;3.33;;;-1.70;99.90;;;;;;5010035;28;20455;-77
2023/02/27 00:40:17;;;;;;;5.70;3.63;;;-1.80;99.90;;;;;;5010592;28;20447;-77
2023/02/27 00:42:45;;;;;;;5.67;3.80;;;-1.80;99.90;;;;;;5010566;28;20843;-77
2023/02/27 00:45:12;;;;;;;4.43;4.03;;;-1.90;99.90;;;;;;5010427;28;20521;-77
2023/02/27 00:47:39;;;;;;;5.23;3.60;;;-1.80;99.90;;;;;;5007419;28;20466;-77
2023/02/27 00:50:06;;;;;;;3.60;3.10;;;-1.70;99.90;;;;;;5008526;28;20466;-76
2023/02/27 00:52:33;;;;;;;6.20;3.27;;;-1.70;99.90;;;;;;5011281;28;20490;-79
2023/02/27 00:55:01;;;;;;;5.10;3.00;;;-1.80;99.90;;;;;;5010459;28;20487;-76
2023/02/27 00:57:29;;;;;;;5.43;3.00;;;-1.70;99.90;;;;;;5011067;28;20454;-77
2023/02/27 00:59:56;;;;;;;5.13;3.17;;;-1.70;99.90;;;;;;5011035;28;20454;-77
2023/02/27 01:02:23;;;;;;;7.23;3.50;;;-1.70;99.90;;;;;;5010278;28;20455;-77
2023/02/27 01:04:50;;;;;;;3.10;2.50;;;-1.60;99.90;;;;;;5010934;28;20448;-77
2023/02/27 01:07:17;;;;;;;5.60;3.40;;;-1.60;99.90;;;;;;5005967;28;20466;-79
2023/02/27 01:09:44;;;;;;;5.10;2.77;;;-1.60;99.90;;;;;;5011313;28;20542;-77
2023/02/27 01:12:11;;;;;;;3.33;3.10;;;-1.60;99.90;;;;;;5012640;28;20451;-77
2023/02/27 01:14:39;;;;;;;3.93;3.43;;;-1.70;99.90;;;;;;5011753;28;20501;-76
2023/02/27 01:17:06;;;;;;;6.13;3.93;;;-1.70;99.90;;;;;;5005657;28;20467;-77
2023/02/27 01:19:33;;;;;;;4.23;3.10;;;-1.70;99.90;;;;;;5012982;28;20494;-76
2023/02/27 01:22:00;;;;;;;5.07;3.40;;;-1.70;99.90;;;;;;5006757;28;20448;-76
2023/02/27 01:24:26;;;;;;;4.23;3.73;;;-1.60;99.90;;;;;;5012851;28;20455;-77
2023/02/27 01:26:53;;;;;;;4.63;3.33;;;-1.70;99.90;;;;;;5012320;28;20460;-77
2023/02/27 01:29:20;;;;;;;5.93;3.77;;;-1.70;99.90;;;;;;5010291;28;20478;-77
2023/02/27 01:31:48;;;;;;;3.77;3.47;;;-1.90;99.90;;;;;;5009806;28;20445;-76
2023/02/27 01:34:16;;;;;;;4.80;3.57;;;-1.80;99.90;;;;;;5010732;28;20505;-77
2023/02/27 01:36:43;;;;;;;5.13;3.30;;;-1.80;99.90;;;;;;5013203;28;20537;-79
2023/02/27 01:39:10;;;;;;;7.27;3.70;;;-1.80;99.90;;;;;;5005515;28;20485;-78
2023/02/27 01:41:37;;;;;;;5.13;4.60;;;-1.80;99.90;;;;;;5021177;28;20456;-78
2023/02/27 01:44:05;;;;;;;4.83;2.93;;;-1.80;99.90;;;;;;5020318;28;20467;-77
2023/02/27 01:46:33;;;;;;;4.43;3.87;;;-1.90;99.90;;;;;;5020078;28;20457;-77
2023/02/27 01:49:06;;;;;;;8.00;4.03;;;-1.90;99.90;;;;;;5018325;28;20451;-81
2023/02/27 01:51:37;;;;;;;4.27;3.37;;;-1.90;99.90;;;;;;5019477;28;20453;-78
2023/02/27 01:54:07;;;;;;;5.77;4.43;;;-1.90;99.90;;;;;;5022895;28;20483;-78
2023/02/27 01:56:34;;;;;;;7.70;3.47;;;-1.80;99.90;;;;;;5022661;28;20792;-77
2023/02/27 01:59:03;;;;;;;6.47;3.20;;;-1.80;99.90;;;;;;5023266;28;20529;-77
2023/02/27 02:01:31;;;;;;;4.03;3.30;;;-1.80;99.90;;;;;;5021943;28;20447;-77
2023/02/27 02:04:05;;;;;;;3.63;3.20;;;-1.70;99.90;;;;;;5020920;28;21226;-77
2023/02/27 02:06:35;;;;;;;3.40;3.10;;;-1.80;99.90;;;;;;5020660;28;20443;-77
2023/02/27 02:09:03;;;;;;;6.77;3.73;;;-1.70;99.90;;;;;;5020096;28;20847;-76
2023/02/27 02:11:30;;;;;;;6.23;3.13;;;-1.70;99.90;;;;;;5019168;28;20447;-79
2023/02/27 02:13:59;;;;;;;3.73;3.23;;;-1.70;99.90;;;;;;5018660;28;20483;-77
2023/02/27 02:16:40;;;;;;;3.60;3.30;;;-2.00;99.90;;;;;;5015762;28;20919;-77
2023/02/27 02:19:26;;;;;;;6.17;3.50;;;-1.90;99.90;;;;;;5013782;28;20999;-78
2023/02/27 02:22:39;;;;;;;4.30;3.17;;;-2.00;99.90;;;;;;5013803;28;20459;-77
2023/02/27 02:25:38;;;;;;;3.63;2.23;;;-1.90;99.90;;;;;;5013731;28;20451;-77
2023/02/27 02:28:20;;;;;;;2.93;2.40;;;-1.90;99.90;;;;;;5013510;28;20466;-77
2023/02/27 02:31:24;;;;;;;4.50;3.20;;;-1.90;99.90;;;;;;5013652;28;20458;-76
2023/02/27 02:34:25;;;;;;;4.77;3.30;;;-1.90;99.90;;;;;;4992873;28;20993;-76
2023/02/27 02:37:33;;;;;;;5.60;2.80;;;-1.90;99.90;;;;;;4993099;28;20519;-77
2023/02/27 02:40:13;;;;;;;7.23;3.07;;;-1.90;99.90;;;;;;4992682;28;20466;-77
2023/02/27 02:42:45;;;;;;;4.37;3.40;;;-2.00;99.90;;;;;;4992305;28;20574;-77
2023/02/27 02:45:17;;;;;;;6.33;4.27;;;-2.00;99.90;;;;;;4992107;28;21220;-76
2023/02/27 02:47:55;;;;;;;6.00;3.20;;;-2.00;99.90;;;;;;4992338;28;20450;-76
2023/02/27 02:50:28;;;;;;;5.50;3.63;;;-2.00;99.90;;;;;;4992120;28;20452;-77
2023/02/27 02:53:04;;;;;;;6.67;4.10;;;-1.80;99.90;;;;;;4992495;28;20454;-76
2023/02/27 02:55:37;;;;;;;4.70;3.03;;;-2.10;99.90;;;;;;4992146;28;20487;-77
2023/02/27 02:58:11;;;;;;;4.03;3.30;;;-2.10;99.90;;;;;;4992099;28;20463;-76
2023/02/27 03:00:43;;;;;;;4.43;3.27;;;-2.10;99.90;;;;;;4992165;28;20463;-77
2023/02/27 03:03:15;;;;;;;4.13;3.33;;;-2.00;99.90;;;;;;4991812;28;20456;-76
2023/02/27 03:05:48;;;;;;;6.93;3.97;;;-2.00;99.90;;;;;;4991839;28;20451;-76
2023/02/27 03:08:19;;;;;;;4.63;2.90;;;-2.00;99.90;;;;;;4992214;28;20448;-76
2023/02/27 03:10:53;;;;;;;3.33;3.13;;;-2.00;99.90;;;;;;5001760;28;20787;-77
2023/02/27 03:13:25;;;;;;;3.60;3.30;;;-2.00;99.90;;;;;;5011599;28;20480;-76
2023/02/27 03:15:59;;;;;;;4.33;3.60;;;-2.00;99.90;;;;;;5011671;28;20881;-76
2023/02/27 03:18:30;;;;;;;4.07;2.90;;;-2.00;99.90;;;;;;5011983;28;20455;-77
2023/02/27 03:21:01;;;;;;;3.77;3.47;;;-2.00;99.90;;;;;;5012268;28;20469;-76
2023/02/27 03:23:33;;;;;;;6.20;4.17;;;-2.10;99.90;;;;;;5011896;28;21047;-76
2023/02/27 03:26:03;;;;;;;4.60;2.90;;;-2.10;99.90;;;;;;5012440;28;20458;-76
2023/02/27 03:28:33;;;;;;;3.60;3.30;;;-2.10;99.90;;;;;;5013236;28;20957;-77
2023/02/27 03:31:07;;;;;;;10.83;3.10;;;-2.10;99.90;;;;;;5013201;28;20455;-77
2023/02/27 03:33:39;;;;;;;4.10;2.93;;;-2.10;99.90;;;;;;5016802;28;20465;-79
2023/02/27 03:36:12;;;;;;;5.20;3.07;;;-2.00;99.90;;;;;;5018074;28;20494;-77
2023/02/27 03:38:44;;;;;;;3.77;3.40;;;-2.00;99.90;;;;;;5016110;28;20447;-77
2023/02/27 03:41:20;;;;;;;3.67;3.37;;;-2.00;99.90;;;;;;5011514;28;20460;-77
2023/02/27 03:43:52;;;;;;;7.67;3.27;;;-2.00;99.90;;;;;;5011296;28;20446;-77
2023/02/27 03:46:23;;;;;;;3.23;2.83;;;-1.90;99.90;;;;;;5010354;28;20941;-77
2023/02/27 03:48:50;;;;;;;9.00;2.90;;;-1.90;99.90;;;;;;5009901;28;20450;-76
2023/02/27 03:51:19;;;;;;;4.50;3.67;;;-1.90;99.90;;;;;;5009928;28;21097;-76
2023/02/27 03:53:50;;;;;;;5.00;3.47;;;-1.90;99.90;;;;;;5110730;23;20503;-70
2023/02/27 03:56:23;;;;;;;3.77;3.27;;;-1.90;99.90;;;;;;4990170;28;20509;-74
2023/02/27 03:58:50;;;;;;;2.67;2.43;;;-1.90;99.90;;;;;;4990037;28;20534;-73
2023/02/27 04:01:18;;;;;;;2.93;2.73;;;-1.90;99.90;;;;;;4990102;28;20461;-74
2023/02/27 04:03:52;;;;;;;4.53;3.03;;;-1.80;99.90;;;;;;4989444;28;20494;-74
2023/02/27 04:09:10;;;;;;;4.20;2.80;;;-1.90;99.90;;;;;;4990843;28;20434;-74
2023/02/27 04:11:58;;;;;;;3.67;2.93;;;-1.90;99.90;;;;;;4990755;28;20542;-73
2023/02/27 04:14:43;;;;;;;5.33;3.77;;;-2.00;99.90;;;;;;4990683;28;20449;-74
2023/02/27 04:17:21;;;;;;;5.50;2.90;;;-2.00;99.90;;;;;;4990670;28;20538;-74
2023/02/27 04:20:13;;;;;;;4.73;3.67;;;-2.00;99.90;;;;;;4989951;28;20562;-77
2023/02/27 04:22:45;;;;;;;5.00;3.30;;;-2.00;99.90;;;;;;4989559;28;20462;-75
2023/02/27 04:25:27;;;;;;;3.37;3.07;;;-1.90;99.90;;;;;;4989469;28;20495;-74
2023/02/27 04:28:00;;;;;;;3.43;3.10;;;-1.90;99.90;;;;;;4989599;28;20459;-74
2023/02/27 04:30:33;;;;;;;3.93;3.37;;;-1.90;99.90;;;;;;4990299;28;20544;-74
2023/02/27 04:33:06;;;;;;;2.93;2.73;;;-1.90;99.90;;;;;;4990447;28;20451;-74
2023/02/27 04:35:38;;;;;;;4.30;3.80;;;-1.90;99.90;;;;;;4990021;28;20872;-75
2023/02/27 04:38:09;;;;;;;4.87;3.80;;;-1.90;99.90;;;;;;4990357;28;20459;-74
2023/02/27 04:40:42;;;;;;;3.87;3.13;;;-1.90;99.90;;;;;;4989397;28;20460;-75
2023/02/27 04:43:13;;;;;;;3.50;3.20;;;-1.90;99.90;;;;;;4989233;28;20840;-74
2023/02/27 04:45:42;;;;;;;3.63;3.27;;;-1.90;99.90;;;;;;4989059;28;20942;-74
2023/02/27 04:48:16;;;;;;;5.60;3.60;;;-1.80;99.90;;;;;;4989169;28;20455;-74
2023/02/27 04:50:49;;;;;;;6.93;3.00;;;-1.80;99.90;;;;;;4989068;28;20455;-73
2023/02/27 04:53:22;;;;;;;5.17;3.43;;;-1.80;99.90;;;;;;4986079;28;20514;-74
2023/02/27 04:55:52;;;;;;;7.73;2.93;;;-1.80;99.90;;;;;;4980055;28;20507;-75
2023/02/27 04:58:25;;;;;;;4.40;3.00;;;-1.80;99.90;;;;;;4988790;28;20445;-74
2023/02/27 05:00:57;;;;;;;4.60;3.50;;;-1.80;99.90;;;;;;4988976;28;20470;-74
2023/02/27 05:03:27;;;;;;;5.43;3.40;;;-1.80;99.90;;;;;;4989206;28;20456;-74
2023/02/27 05:05:58;;;;;;;4.70;3.90;;;-1.80;99.90;;;;;;4989318;28;20451;-73
2023/02/27 05:08:31;;;;;;;4.63;3.50;;;-1.90;99.90;;;;;;4989614;28;20456;-75
2023/02/27 05:11:02;;;;;;;3.47;3.17;;;-1.90;99.90;;;;;;4989636;28;20531;-77
2023/02/27 05:13:35;;;;;;;5.50;3.37;;;-1.90;99.90;;;;;;4988847;28;20456;-73
2023/02/27 05:16:08;;;;;;;5.20;3.83;;;-2.00;99.90;;;;;;4992299;28;20502;-74
2023/02/27 05:18:35;;;;;;;5.70;3.73;;;-2.00;99.90;;;;;;4992765;28;20455;-74
2023/02/27 05:21:09;;;;;;;6.83;4.70;;;-2.00;99.90;;;;;;4992613;28;20472;-72
2023/02/27 05:23:47;;;;;;;3.90;3.00;;;-2.10;99.90;;;;;;4992315;28;20451;-74
2023/02/27 05:26:18;;;;;;;6.10;3.40;;;-2.10;99.90;;;;;;4992731;28;20483;-74
2023/02/27 05:28:53;;;;;;;5.77;3.77;;;-2.10;99.90;;;;;;4992282;28;20452;-74
2023/02/27 05:31:26;;;;;;;8.90;3.70;;;-2.10;99.90;;;;;;4989623;28;20451;-74
2023/02/27 05:33:57;;;;;;;3.50;3.20;;;-2.10;99.90;;;;;;4973112;28;21005;-73
2023/02/27 05:36:30;;;;;;;3.50;3.20;;;-2.10;99.90;;;;;;4973197;28;20492;-73
2023/02/27 05:39:01;;;;;;;3.40;3.10;;;-2.10;99.90;;;;;;4973407;28;20452;-74
2023/02/27 05:41:32;;;;;;;3.50;2.93;;;-2.10;99.90;;;;;;4972775;28;20955;-73
2023/02/27 05:44:06;;;;;;;5.27;4.00;;;-2.20;99.90;;;;;;4972773;28;20457;-74
2023/02/27 05:46:37;;;;;;;6.03;4.13;;;-2.20;99.90;;;;;;4973300;28;20452;-74
2023/02/27 05:49:09;;;;;;;5.33;4.13;;;-2.20;99.90;;;;;;4972642;28;20448;-73
2023/02/27 05:51:38;;;;;;;4.17;3.10;;;-2.10;99.90;;;;;;4972741;28;20831;-74
2023/02/27 05:54:10;;;;;;;5.33;3.30;;;-2.10;99.90;;;;;;4991270;28;20946;-74
2023/02/27 05:56:38;;;;;;;10.33;4.00;;;-2.20;99.90;;;;;;4986265;28;20484;-74
2023/02/27 05:59:10;;;;;;;3.43;3.23;;;-2.30;99.90;;;;;;4991855;28;20459;-76
2023/02/27 06:01:37;;;;;;;4.87;3.30;;;-2.20;99.90;;;;;;4992307;28;20463;-75
2023/02/27 06:04:04;;;;;;;3.77;3.00;;;-2.20;99.90;;;;;;4992182;28;21027;-74
2023/02/27 06:06:31;;;;;;;10.40;4.10;;;-2.20;99.90;;;;;;4994560;28;20820;-80
2023/02/27 06:08:58;;;;;;;7.20;3.87;;;-2.20;99.90;;;;;;4996701;28;20451;-73
2023/02/27 06:11:25;;;;;;;3.50;2.97;;;-2.20;99.90;;;;;;4997472;28;20455;-74
2023/02/27 06:13:51;;;;;;;4.50;3.10;;;-2.20;99.90;;;;;;4996509;28;20460;-74
2023/02/27 06:39:51;;;;;;;3.57;2.90;;;-1.90;99.90;;;;;;5717396;22;20505;-76
2023/02/27 06:42:19;;;;;;;5.53;3.90;;;-1.90;99.90;;;;;;5143670;23;20438;-78
2023/02/27 07:34:02;;;;;;;5.17;3.60;;;-1.10;99.90;;;;;;5427877;23;20461;-80
2023/02/27 07:52:03;;;;;;;4.20;2.60;;;-0.60;99.90;;;;;;5876024;22;20478;-79
2023/02/27 07:54:30;;;;;;;5.00;3.03;;;-2.30;99.90;;;;;;5507195;22;20827;-80
2023/02/27 07:56:57;;;;;;;9.30;3.70;;;1.70;99.90;;;;;;5307847;23;20537;-79
2023/02/27 07:59:24;;;;;;;5.93;2.93;;;-0.70;99.90;;;;;;5142368;22;20470;-80
2023/02/27 08:01:52;;;;;;;4.93;4.00;;;-0.60;99.90;;;;;;5706624;22;20633;-82
2023/02/27 08:09:41;;;;;;;4.40;3.17;;;-0.40;99.90;;;;;;5266866;22;20487;-77
2023/02/27 08:12:08;;;;;;;4.27;3.10;;;-0.30;99.90;;;;;;5014828;28;20984;-79
2023/02/27 08:14:35;;;;;;;3.27;3.00;;;-0.40;99.90;;;;;;5014978;28;20479;-78
2023/02/27 08:17:02;;;;;;;3.30;3.07;;;-0.40;99.90;;;;;;5010496;28;21061;-77
2023/02/27 08:19:29;;;;;;;6.60;3.13;;;-0.30;99.90;;;;;;5010819;28;20472;-77
2023/02/27 08:21:56;;;;;;;2.80;2.60;;;-0.30;99.90;;;;;;5010808;28;20464;-77
2023/02/27 08:24:23;;;;;;;4.47;3.20;;;-0.40;99.90;;;;;;5010670;28;20984;-78
2023/02/27 08:26:54;;;;;;;3.07;2.77;;;-0.30;99.90;;;;;;5010966;28;20463;-79
2023/02/27 08:29:21;;;;;;;10.03;4.77;;;-0.40;99.90;;;;;;5011047;28;20526;-77
2023/02/27 08:31:48;;;;;;;3.23;2.73;;;-0.30;99.90;;;;;;5011264;28;20462;-78
2023/02/27 08:34:15;;;;;;;3.63;3.33;;;-0.10;99.90;;;;;;5011261;28;20446;-78
2023/02/27 08:36:42;;;;;;;6.00;4.13;;;-0.30;99.90;;;;;;5012342;28;20483;-77
2023/02/27 08:39:10;;;;;;;5.97;3.40;;;-0.10;99.90;;;;;;5010700;28;20534;-76
2023/02/27 08:41:37;;;;;;;6.73;4.10;;;-0.30;99.90;;;;;;5010048;28;20455;-74
2023/02/27 08:44:05;;;;;;;4.50;3.43;;;-0.50;99.90;;;;;;5009851;28;20451;-76
2023/02/27 08:46:32;;;;;;;4.43;3.80;;;-0.30;99.90;;;;;;5012605;28;20439;-78
2023/02/27 08:48:59;;;;;;;7.97;3.90;;;-0.30;99.90;;;;;;5009745;28;20836;-76
2023/02/27 08:51:26;;;;;;;5.93;4.10;;;-0.30;99.90;;;;;;4990198;28;20448;-77
2023/02/27 08:53:54;;;;;;;4.67;3.50;;;-0.30;99.90;;;;;;4989956;28;20448;-76
2023/02/27 08:56:21;;;;;;;5.83;3.83;;;-0.20;99.90;;;;;;4988998;28;20515;-75
2023/02/27 08:58:48;;;;;;;4.37;3.30;;;0.10;99.90;;;;;;4988909;28;20456;-76
2023/02/27 09:01:16;;;;;;;7.63;4.40;;;0.20;99.90;;;;;;4989194;28;20777;-76
2023/02/27 09:03:43;;;;;;;8.90;4.47;;;0.20;99.90;;;;;;4990428;28;20452;-78
2023/02/27 09:06:10;;;;;;;4.70;3.27;;;0.20;99.90;;;;;;4993712;28;20444;-77
2023/02/27 09:08:37;;;;;;;4.23;3.23;;;0.30;99.90;;;;;;5004047;28;20478;-75
2023/02/27 09:11:04;;;;;;;4.00;3.00;;;0.20;99.90;;;;;;4991250;28;20460;-78
2023/02/27 09:13:31;;;;;;;6.43;3.77;;;0.30;99.90;;;;;;5003731;28;20515;-78
2023/02/27 09:15:58;;;;;;;5.30;4.70;;;0.50;99.90;;;;;;5273517;23;20485;-80
2023/02/27 09:18:27;;;;;;;5.10;4.00;;;0.50;99.90;;;;;;5036151;28;20508;-78
2023/02/27 09:23:29;;;;;;;4.40;3.30;;;0.40;99.90;;;;;;5036352;22;20494;-77
2023/02/27 09:25:55;;;;;;;5.47;4.87;;;0.70;99.90;;;;;;5008536;28;20454;-75
2023/02/27 09:28:22;;;;;;;9.73;3.97;;;0.30;99.90;;;;;;5004218;28;20460;-77
2023/02/27 09:30:49;;;;;;;7.43;4.70;;;0.60;99.90;;;;;;4994291;28;20456;-75
2023/02/27 09:33:16;;;;;;;6.30;4.60;;;0.40;99.90;;;;;;5009675;28;20490;-78
2023/02/27 09:35:44;;;;;;;7.77;4.57;;;0.10;99.90;;;;;;5000151;28;20473;-71
2023/02/27 09:38:12;;;;;;;6.37;4.00;;;0.20;99.90;;;;;;5001781;28;20440;-79
2023/02/27 09:43:18;;;;;;;6.83;5.17;;;0.00;99.90;;;;;;4998262;28;20523;-79
2023/02/27 09:45:49;;;;;;;4.77;3.77;;;-0.20;99.90;;;;;;5010256;28;20459;-79
2023/02/27 09:48:26;;;;;;;5.43;4.67;;;-0.30;99.90;;;;;;4999986;28;20448;-79
2023/02/27 09:50:54;;;;;;;5.47;4.40;;;-0.50;99.90;;;;;;4996250;28;20470;-78
2023/02/27 09:53:26;;;;;;;8.53;4.80;;;-0.30;99.90;;;;;;4995829;28;20465;-79
2023/02/27 09:58:43;;;;;;;5.53;4.40;;;-0.10;99.90;;;;;;5401532;23;20543;-80
2023/02/27 10:01:14;;;;;;;8.17;5.17;;;0.30;99.90;;;;;;5067530;28;20456;-79
2023/02/27 10:03:58;;;;;;;6.50;4.83;;;0.80;99.90;;;;;;5079998;28;20433;-80
2023/02/27 10:06:33;;;;;;;6.33;5.00;;;0.30;99.90;;;;;;5079566;28;20446;-80
2023/02/27 10:09:16;;;;;;;9.23;3.97;;;0.30;99.90;;;;;;5080819;28;20432;-81
2023/02/27 10:11:53;;;;;;;5.20;4.57;;;0.90;99.90;;;;;;5074561;28;20469;-82
2023/02/27 10:14:29;;;;;;;6.60;5.07;;;1.30;99.90;;;;;;5047051;28;20431;-82
2023/02/27 10:16:58;;;;;;;9.67;4.60;;;1.10;99.90;;;;;;5054910;28;20489;-81
2023/02/27 10:19:28;;;;;;;8.57;5.17;;;1.10;99.90;;;;;;5038875;28;20809;-82
2023/02/27 10:21:58;;;;;;;6.30;4.73;;;1.20;99.90;;;;;;5031938;28;20478;-82
2023/02/27 10:24:28;;;;;;;7.83;5.03;;;1.10;99.90;;;;;;5047737;28;20443;-82
2023/02/27 10:26:58;;;;;;;6.40;5.80;;;0.90;99.90;;;;;;5055768;28;20439;-82
2023/02/27 10:29:29;;;;;;;4.80;4.40;;;0.70;99.90;;;;;;5050035;28;20443;-81
2023/02/27 10:32:02;;;;;;;6.07;4.43;;;1.10;99.90;;;;;;5050325;28;20458;-81
2023/02/27 10:34:32;;;;;;;5.50;5.07;;;1.30;99.90;;;;;;5054282;28;20859;-81
2023/02/27 10:37:03;;;;;;;6.00;4.40;;;0.70;99.90;;;;;;5054593;28;20509;-80
2023/02/27 10:39:31;;;;;;;8.97;5.27;;;0.70;99.90;;;;;;5041802;28;20455;-76
2023/02/27 10:42:05;;;;;;;6.00;4.03;;;0.80;99.90;;;;;;5038154;28;21016;-79
2023/02/27 10:44:32;;;;;;;5.73;4.17;;;0.70;99.90;;;;;;5040917;28;20457;-77
2023/02/27 10:47:00;;;;;;;4.13;3.70;;;0.60;99.90;;;;;;5059323;28;20431;-80
2023/02/27 10:49:30;;;;;;;6.40;4.70;;;0.80;99.90;;;;;;5058877;28;20426;-80
2023/02/27 10:58:28;;;;;;;4.93;3.27;;;0.80;99.90;;;;;;5017360;28;20514;-77
2023/02/27 11:00:58;;;;;;;10.77;3.27;;;0.70;99.90;;;;;;5014640;28;20452;-77
2023/02/27 11:03:28;;;;;;;5.07;3.00;;;0.90;99.90;;;;;;5015402;28;20466;-79
2023/02/27 11:06:00;;;;;;;6.17;2.87;;;0.50;99.90;;;;;;5017387;28;20447;-77
2023/02/27 11:08:31;;;;;;;3.27;2.97;;;2.10;99.90;;;;;;5012272;28;20462;-76
2023/02/27 11:11:01;;;;;;;4.90;3.60;;;0.60;99.90;;;;;;5013587;28;20907;-77
2023/02/27 11:13:32;;;;;;;4.10;3.13;;;1.30;99.90;;;;;;5015004;28;20512;-77
2023/02/27 11:16:12;;;;;;;6.60;3.10;;;0.50;99.90;;;;;;5018457;28;20478;-78
2023/02/27 11:19:53;;;;;;;6.90;2.77;;;0.50;99.90;;;;;;5013578;28;20468;-77
2023/02/27 11:22:24;;;;;;;5.20;3.00;;;0.50;99.90;;;;;;4998576;28;20463;-76
2023/02/27 11:25:24;;;;;;;2.63;2.43;;;0.70;99.90;;;;;;5003413;28;20583;-77
2023/02/27 11:27:52;;;;;;;3.83;2.53;;;0.60;99.90;;;;;;5006675;28;20487;-78
2023/02/27 11:30:27;;;;;;;4.00;2.17;;;0.80;99.90;;;;;;5000647;28;20842;-79
2023/02/27 11:32:56;;;;;;;3.97;3.03;;;1.30;99.90;;;;;;5008606;28;20989;-78
2023/02/27 11:35:29;;;;;;;2.90;2.60;;;0.70;99.90;;;;;;5004537;28;21018;-78
2023/02/27 11:37:57;;;;;;;2.63;2.43;;;0.20;99.90;;;;;;5014125;28;20530;-78
2023/02/27 11:40:30;;;;;;;6.53;2.87;;;0.80;99.90;;;;;;5015290;28;20440;-78
2023/02/27 11:43:03;;;;;;;4.33;2.80;;;0.40;99.90;;;;;;5015142;28;20457;-78
2023/02/27 11:45:36;;;;;;;6.77;3.93;;;1.40;99.90;;;;;;5012577;28;20452;-77
2023/02/27 11:48:10;;;;;;;6.30;2.80;;;0.90;99.90;;;;;;5003894;28;20475;-77
2023/02/27 11:51:00;;;;;;;4.80;2.30;;;1.30;99.90;;;;;;4993394;28;20927;-78
2023/02/27 11:53:59;;;;;;;2.90;2.40;;;1.60;99.90;;;;;;4993662;28;20531;-77
2023/02/27 11:56:39;;;;;;;3.43;2.30;;;1.40;99.90;;;;;;4994892;28;20452;-78
2023/02/27 11:59:17;;;;;;;5.53;2.33;;;0.90;99.90;;;;;;4994212;28;20535;-78
2023/02/27 12:01:52;;;;;;;2.73;2.53;;;1.90;99.90;;;;;;4997695;28;20475;-78
2023/02/27 12:04:24;;;;;;;3.17;2.50;;;1.30;99.90;;;;;;5006051;28;20460;-77
2023/02/27 12:06:57;;;;;;;5.13;2.73;;;1.60;99.90;;;;;;5015884;28;20452;-77
2023/02/27 12:09:39;;;;;;;3.67;2.27;;;2.20;99.90;;;;;;5013701;28;20460;-78
2023/02/27 12:12:18;;;;;;;3.67;2.40;;;0.70;99.90;;;;;;5013660;28;20451;-79
2023/02/27 12:14:51;;;;;;;3.63;1.93;;;1.20;99.90;;;;;;5013604;28;20482;-78
2023/02/27 12:17:26;;;;;;;2.93;2.50;;;1.70;99.90;;;;;;5012212;28;20484;-78
2023/02/27 12:20:06;;;;;;;3.00;2.67;;;2.50;99.90;;;;;;5011707;28;20505;-79
2023/02/27 12:22:37;;;;;;;6.90;2.90;;;1.50;99.90;;;;;;5009558;28;20493;-79
2023/02/27 12:25:12;;;;;;;4.80;2.77;;;1.50;99.90;;;;;;5019414;28;20463;-79
2023/02/27 12:28:08;;;;;;;3.00;2.70;;;1.30;99.90;;;;;;5009944;28;20963;-79
2023/02/27 12:30:41;;;;;;;2.53;1.70;;;0.90;99.90;;;;;;5002456;28;20503;-77
2023/02/27 12:33:18;;;;;;;4.60;2.20;;;1.00;99.90;;;;;;5000992;28;20468;-77
2023/02/27 12:35:50;;;;;;;3.17;2.27;;;1.30;99.90;;;;;;5007997;28;20471;-79
2023/02/27 12:38:19;;;;;;;4.00;2.53;;;1.00;99.90;;;;;;5043372;28;20491;-79
2023/02/27 12:40:54;;;;;;;3.83;2.00;;;1.00;99.90;;;;;;5040703;28;20439;-80
2023/02/27 12:46:04;;;;;;;3.00;2.03;;;0.80;99.90;;;;;;5134583;23;20954;-81
2023/02/27 12:48:46;;;;;;;3.27;2.80;;;3.80;99.90;;;;;;5058727;28;20470;-80
2023/02/27 12:51:29;;;;;;;3.50;2.67;;;0.60;99.90;;;;;;5058653;28;20446;-80
2023/02/27 12:54:10;;;;;;;3.13;2.83;;;0.20;99.90;;;;;;5058911;28;20427;-81
2023/02/27 12:56:49;;;;;;;3.60;2.73;;;0.60;99.90;;;;;;5058702;28;20514;-80
2023/02/27 12:59:33;;;;;;;3.13;2.50;;;1.80;99.90;;;;;;5058615;28;20458;-80
2023/02/27 13:02:13;;;;;;;7.20;3.03;;;0.60;99.90;;;;;;5058687;28;20446;-79
2023/02/27 13:04:45;;;;;;;3.13;2.47;;;;;;;;;;5056805;28;20450;-80
2023/02/27 13:07:23;;;;;;;3.73;3.37;;;0.80;99.90;;;;;;5038686;28;20433;-78
2023/02/27 13:13:19;;;;;;;2.60;2.10;;;1.10;99.90;;;;;;5031554;28;20469;-76
2023/02/27 13:16:07;;;;;;;3.43;2.70;;;0.90;99.90;;;;;;5030716;28;20952;-78
2023/02/27 13:21:39;;;;;;;4.83;2.83;;;1.10;99.90;;;;;;5029884;28;21018;-80
2023/02/27 13:24:22;;;;;;;3.63;2.30;;;1.40;99.90;;;;;;5030153;28;20863;-76
2023/02/27 13:26:55;;;;;;;5.47;3.37;;;1.40;99.90;;;;;;5028228;28;20446;-77
2023/02/27 13:29:24;;;;;;;7.03;3.40;;;1.10;99.90;;;;;;4990649;28;20489;-77
2023/02/27 13:31:59;;;;;;;7.60;2.80;;;1.20;99.90;;;;;;4999434;28;20461;-78
2023/02/27 13:34:51;;;;;;;10.30;3.10;;;1.20;99.90;;;;;;4998658;28;20529;-78
2023/02/27 13:37:19;;;;;;;3.23;2.30;;;1.40;99.90;;;;;;5015217;28;20509;-80
2023/02/27 13:40:00;;;;;;;3.73;2.77;;;1.40;99.90;;;;;;5014112;28;20456;-79
2023/02/27 13:42:53;;;;;;;5.13;3.10;;;1.20;99.90;;;;;;5013464;28;20887;-78
2023/02/27 13:45:50;;;;;;;5.80;2.53;;;1.30;99.90;;;;;;5013885;28;20893;-78
2023/02/27 13:48:44;;;;;;;3.70;2.37;;;1.30;99.90;;;;;;5012344;28;20458;-77
2023/02/27 13:51:55;;;;;;;3.93;2.47;;;1.70;99.90;;;;;;5011165;28;20455;-77
2023/02/27 13:54:27;;;;;;;4.40;2.57;;;2.00;99.90;;;;;;5027390;28;20463;-77
2023/02/27 13:57:20;;;;;;;2.80;2.43;;;2.10;99.90;;;;;;5035585;28;20465;-77
2023/02/27 13:59:57;;;;;;;6.43;2.77;;;2.40;99.90;;;;;;5038741;28;20458;-77
2023/02/27 14:02:41;;;;;;;5.57;3.27;;;1.80;99.90;;;;;;5033662;28;20467;-76
2023/02/27 14:05:10;;;;;;;4.73;2.73;;;1.20;99.90;;;;;;5030758;28;20500;-77
2023/02/27 14:07:56;;;;;;;3.50;3.03;;;1.30;99.90;;;;;;5052034;28;20447;-77
2023/02/27 14:10:26;;;;;;;4.70;3.57;;;;;;;;;;5051178;28;20465;-78
2023/02/27 14:12:53;;;;;;;4.60;3.00;;;;;;;;;;5030061;28;20466;-77
2023/02/27 14:15:44;;;;;;;9.73;3.43;;;;;;;;;;5030286;28;20447;-78
2023/02/27 14:18:44;;;;;;;3.33;3.03;;;0.90;99.90;;;;;;5019358;28;20489;-80
2023/02/27 14:21:11;;;;;;;4.10;3.17;;;1.00;99.90;;;;;;5016845;28;20529;-78
2023/02/27 14:23:38;;;;;;;4.93;3.50;;;0.70;99.90;;;;;;5016969;28;20454;-78
2023/02/27 14:26:19;;;;;;;4.47;4.03;;;0.40;99.90;;;;;;5017272;28;20466;-79
2023/02/27 14:28:50;;;;;;;4.00;3.60;;;0.40;99.90;;;;;;5016453;28;20451;-76
2023/02/27 14:31:21;;;;;;;5.33;3.03;;;;;;;;;;5016106;28;20462;-76
2023/02/27 14:33:52;;;;;;;5.53;3.17;;;;;;;;;;5018155;28;20482;-81
2023/02/27 14:36:22;;;;;;;5.30;3.70;;;0.50;99.90;;;;;;5034318;28;20482;-78
2023/02/27 14:38:50;;;;;;;10.17;3.63;;;0.80;99.90;;;;;;5040595;28;20489;-77
2023/02/27 14:41:35;;;;;;;6.00;3.97;;;0.70;99.90;;;;;;5040928;28;20442;-78
2023/02/27 14:44:02;;;;;;;4.17;3.43;;;0.50;99.90;;;;;;5040145;28;20458;-78
2023/02/27 14:46:32;;;;;;;4.90;3.43;;;0.70;99.90;;;;;;5040044;28;20459;-78
2023/02/27 14:49:01;;;;;;;5.43;3.30;;;0.90;99.90;;;;;;5041604;28;20447;-79
2023/02/27 14:51:31;;;;;;;7.33;3.90;;;1.30;99.90;;;;;;5041010;28;20834;-79
2023/02/27 14:54:03;;;;;;;8.17;3.80;;;1.30;99.90;;;;;;5037817;28;20435;-78
2023/02/27 14:56:33;;;;;;;6.10;3.80;;;0.60;99.90;;;;;;5037882;28;20449;-78
2023/02/27 14:59:01;;;;;;;5.50;4.17;;;0.80;99.90;;;;;;5037176;28;20517;-77
2023/02/27 15:01:34;;;;;;;6.20;3.60;;;0.80;99.90;;;;;;5034110;28;20465;-77
2023/02/27 15:04:00;;;;;;;4.10;3.20;;;0.90;99.90;;;;;;5040156;28;20494;-78
2023/02/27 15:06:34;;;;;;;7.40;3.50;;;0.90;99.90;;;;;;5054336;28;20483;-81
2023/02/27 15:09:01;;;;;;;7.70;3.03;;;1.00;99.90;;;;;;5058364;28;20466;-80
2023/02/27 15:11:28;;;;;;;6.03;3.10;;;1.00;99.90;;;;;;5055057;28;20465;-80
2023/02/27 15:14:05;;;;;;;5.60;3.13;;;1.00;99.90;;;;;;5058754;28;20449;-81
2023/02/27 15:21:46;;;;;;;6.03;3.23;;;0.50;99.90;;;;;;5077124;23;20499;-80
2023/02/27 15:24:25;;;;;;;5.67;3.70;;;0.30;99.90;;;;;;5020842;28;20472;-80
2023/02/27 15:26:56;;;;;;;4.10;3.33;;;0.30;99.90;;;;;;5012201;28;20965;-80